Time;durP1;ratioP1;P1;durP2;ratioP2;P2;SDS_P1;SDS_P2;PMS_P1;PMS_P2;Temp;Humidity;BMP_temperature;BMP_pressure;BME280_temperature;BME280_humidity;BME280_pressure;Samples;Min_cycle;Max_cycle;Signal;HPM_P1;HPM_P2
2023/01/11 00:01:19;;;;;;;46.88;6.57;;;;;;;8.08;100.00;99472.66;5034229;28;20025;-93
2023/01/11 00:03:44;;;;;;;37.45;6.45;;;;;;;7.84;100.00;99464.72;5034289;28;20451;-94
2023/01/11 00:06:12;;;;;;;48.83;7.38;;;;;;;7.83;100.00;99478.50;5050767;28;20029;-94
2023/01/11 00:08:38;;;;;;;26.10;4.22;;;;;;;7.64;100.00;99471.91;5033752;28;20503;-93
2023/01/11 00:11:11;;;;;;;47.47;5.75;;;;;;;8.01;100.00;99482.47;5049769;28;20120;-93
2023/01/11 00:13:37;;;;;;;42.83;6.95;;;;;;;8.00;100.00;99493.69;5048214;28;20029;-94
2023/01/11 00:16:07;;;;;;;43.53;5.95;;;;;;;7.81;100.00;99480.31;5033622;28;20113;-94
2023/01/11 00:18:33;;;;;;;42.65;5.25;;;;;;;7.80;100.00;99494.06;5033565;28;20479;-95
2023/01/11 00:21:04;;;;;;;44.40;6.95;;;;;;;7.90;100.00;99495.16;5034782;28;20041;-94
2023/01/11 00:23:36;;;;;;;42.60;5.45;;;;;;;7.94;100.00;99514.59;5050227;28;20087;-93
2023/01/11 00:26:04;;;;;;;42.58;5.75;;;;;;;7.96;100.00;99523.06;5049942;28;20065;-92
2023/01/11 00:28:29;;;;;;;54.30;5.85;;;;;;;7.87;100.00;99510.75;5047941;28;20034;-93
2023/01/11 00:30:55;;;;;;;29.60;5.20;;;;;;;7.95;100.00;99536.81;5033111;28;20090;-93
2023/01/11 00:33:20;;;;;;;33.55;5.47;;;;;;;7.83;100.00;99540.16;5050002;28;20053;-93
2023/01/11 00:35:46;;;;;;;48.55;7.22;;;;;;;7.71;100.00;99524.53;5033360;28;20146;-93
2023/01/11 00:38:42;;;;;;;39.67;5.57;;;;;;;7.72;100.00;99549.28;5033313;28;20622;-93
2023/01/11 00:47:55;;;;;;;31.50;5.30;;;;;;;7.75;100.00;99555.16;5034089;28;20380;-93
2023/01/11 00:49:10;;;;;;;34.10;4.80;;;;;;;7.70;100.00;99529.75;5034125;28;20040;-93
2023/01/11 00:51:36;;;;;;;36.75;5.28;;;;;;;7.79;100.00;99556.66;5049678;28;20022;-93
2023/01/11 00:54:01;;;;;;;44.22;6.13;;;;;;;7.61;100.00;99533.72;5032992;28;20068;-94
2023/01/11 00:56:27;;;;;;;38.72;5.57;;;;;;;7.81;100.00;99557.38;5049566;28;20399;-93
2023/01/11 00:58:52;;;;;;;47.80;5.88;;;;;;;7.83;100.00;99551.25;5048352;28;20029;-93
2023/01/11 01:01:18;;;;;;;35.67;7.93;;;;;;;7.83;100.00;99555.56;5049541;28;20025;-93
2023/01/11 01:03:43;;;;;;;41.80;5.68;;;;;;;7.91;100.00;99569.56;5049770;28;20025;-94
2023/01/11 01:06:09;;;;;;;39.08;6.13;;;;;;;7.93;100.00;99572.06;5049587;28;20373;-93
2023/01/11 01:08:34;;;;;;;46.00;6.40;;;;;;;8.02;100.00;99574.09;5049887;28;20028;-94
2023/01/11 01:11:00;;;;;;;37.05;5.50;;;;;;;8.05;100.00;99585.91;5049898;28;20033;-94
2023/01/11 01:16:09;;;;;;;34.28;5.60;;;;;;;7.79;100.00;99559.22;5032292;28;20044;-95
2023/01/11 01:18:35;;;;;;;46.90;6.78;;;;;;;7.85;100.00;99567.38;5047715;28;20059;-94
2023/01/11 01:21:00;;;;;;;46.47;6.70;;;;;;;7.81;100.00;99570.22;5048940;28;20120;-93
2023/01/11 01:23:26;;;;;;;34.72;5.63;;;;;;;8.00;100.00;99590.47;5033247;28;20017;-94
2023/01/11 01:25:51;;;;;;;30.15;3.70;;;;;;;8.00;100.00;99578.47;5049285;28;20032;-93
2023/01/11 01:28:20;;;;;;;31.25;5.20;;;;;;;7.72;100.00;99577.53;5049511;28;20021;-95
2023/01/11 01:30:50;;;;;;;34.63;5.78;;;;;;;7.84;100.00;99577.75;5047652;28;20033;-95
2023/01/11 01:33:15;;;;;;;42.00;5.47;;;;;;;7.71;100.00;99591.31;5048919;28;20022;-93
2023/01/11 01:35:41;;;;;;;38.30;5.45;;;;;;;7.69;100.00;99613.69;5032363;28;20026;-93
2023/01/11 01:38:06;;;;;;;40.00;5.78;;;;;;;7.62;100.00;99594.44;5033239;28;20106;-94
2023/01/11 01:40:32;;;;;;;43.10;7.57;;;;;;;7.50;100.00;99590.00;5049248;28;20055;-93
2023/01/11 01:42:57;;;;;;;48.47;5.32;;;;;;;7.64;100.00;99620.84;5032832;28;20398;-94
2023/01/11 01:45:27;;;;;;;39.67;5.45;;;;;;;7.44;100.00;99600.66;5031211;28;20040;-93
2023/01/11 01:48:00;;;;;;;33.53;5.70;;;;;;;7.48;100.00;99609.81;5029458;28;20022;-93
2023/01/11 01:50:38;;;;;;;41.10;5.55;;;;;;;7.86;100.00;99643.53;5013103;28;20161;-93
2023/01/11 01:53:13;;;;;;;36.90;4.85;;;;;;;7.86;100.00;99661.53;5016091;28;20053;-93
2023/01/11 01:55:44;;;;;;;42.25;8.25;;;;;;;7.69;100.00;99644.53;5014024;28;20026;-95
2023/01/11 01:58:14;;;;;;;37.33;5.13;;;;;;;7.57;100.00;99624.69;5029533;28;20026;-95
2023/01/11 02:00:42;;;;;;;51.80;7.25;;;;;;;7.66;100.00;99657.53;5029544;28;20025;-94
2023/01/11 02:03:12;;;;;;;50.88;6.97;;;;;;;7.55;100.00;99644.50;5029375;28;20030;-95
2023/01/11 02:05:38;;;;;;;51.17;5.53;;;;;;;7.50;100.00;99659.34;5045288;28;20048;-95
2023/01/11 02:08:10;;;;;;;27.75;5.07;;;;;;;7.48;100.00;99664.53;5049651;28;20017;-95
2023/01/11 02:10:37;;;;;;;54.20;7.85;;;;;;;7.38;100.00;99654.91;5032594;28;20041;-95
2023/01/11 02:13:09;;;;;;;38.50;5.70;;;;;;;7.58;100.00;99693.09;5049505;28;20030;-95
2023/01/11 02:15:36;;;;;;;47.40;7.25;;;;;;;7.31;100.00;99677.50;5049099;28;20029;-96
2023/01/11 02:18:02;;;;;;;38.42;5.78;;;;;;;7.21;100.00;99692.59;5032517;28;20053;-94
2023/01/11 02:20:46;;;;;;;54.50;7.78;;;;;;;7.13;100.00;99693.94;5027921;28;20488;-93
2023/01/11 02:23:34;;;;;;;33.05;6.57;;;;;;;7.05;100.00;99681.56;5026759;28;20036;-95
2023/01/11 02:26:39;;;;;;;40.03;5.88;;;;;;;7.46;100.00;99711.75;5029145;28;20040;-95
2023/01/11 02:29:28;;;;;;;47.20;7.38;;;;;;;6.96;100.00;99662.34;5012776;28;20061;-95
2023/01/11 02:32:09;;;;;;;43.83;7.82;;;;;;;7.03;100.00;99673.09;5031610;28;20025;-95
2023/01/11 02:34:45;;;;;;;44.60;5.30;;;;;;;7.10;100.00;99700.09;5035417;28;20033;-94
2023/01/11 02:37:26;;;;;;;41.03;5.88;;;;;;;7.05;100.00;99682.38;5035853;28;20045;-95
2023/01/11 02:39:55;;;;;;;41.30;5.90;;;;;;;7.20;100.00;99716.63;5053234;28;20025;-94
2023/01/11 02:46:07;;;;;;;46.22;6.20;;;;;;;6.71;100.00;99692.81;4990623;28;20034;-93
2023/01/11 02:48:46;;;;;;;35.33;5.35;;;;;;;6.78;100.00;99706.94;5053450;28;20379;-95
2023/01/11 02:51:18;;;;;;;40.03;8.90;;;;;;;6.73;100.00;99693.53;5037677;28;20088;-94
2023/01/11 02:53:59;;;;;;;37.00;6.32;;;;;;;6.83;100.00;99708.34;5034195;28;20053;-94
2023/01/11 02:56:28;;;;;;;46.67;6.47;;;;;;;6.74;100.00;99695.19;5016245;28;20022;-94
2023/01/11 02:58:56;;;;;;;32.00;4.90;;;;;;;6.54;100.00;99709.91;5016067;28;20026;-93
2023/01/11 03:01:24;;;;;;;40.78;7.45;;;;;;;6.56;100.00;99712.38;5032037;28;20030;-93
2023/01/11 03:03:50;;;;;;;36.40;4.53;;;;;;;6.64;100.00;99720.50;5032151;28;20037;-94
2023/01/11 03:06:20;;;;;;;34.97;4.93;;;;;;;6.30;100.00;99706.88;5015630;28;20030;-92
2023/01/11 03:09:04;;;;;;;31.55;5.63;;;;;;;6.44;100.00;99731.81;5031457;28;20344;-95
2023/01/11 03:14:22;;;;;;;39.83;6.85;;;;;;;6.45;100.00;99730.06;5035765;28;20561;-93
2023/01/11 03:17:02;;;;;;;33.47;4.75;;;;;;;6.49;100.00;99719.56;5035405;28;20025;-94
2023/01/11 03:20:00;;;;;;;28.98;5.25;;;;;;;6.58;100.00;99706.28;5034905;28;20014;-93
2023/01/11 03:22:41;;;;;;;28.20;3.65;;;;;;;6.80;100.00;99725.63;5051031;28;20033;-93
2023/01/11 03:25:32;;;;;;;33.88;4.97;;;;;;;6.71;100.00;99734.66;5033351;28;20030;-94
2023/01/11 03:28:04;;;;;;;32.28;4.72;;;;;;;6.21;100.00;99694.53;5015319;28;20029;-94
2023/01/11 03:30:47;;;;;;;41.35;4.63;;;;;;;6.58;100.00;99723.38;5015417;28;20048;-94
2023/01/11 03:33:23;;;;;;;34.63;4.50;;;;;;;6.43;100.00;99705.31;5015442;28;20026;-95
2023/01/11 03:36:16;;;;;;;39.40;4.65;;;;;;;6.72;100.00;99723.47;5015360;28;20060;-92
2023/01/11 03:38:52;;;;;;;38.72;5.30;;;;;;;6.43;100.00;99707.88;5015291;28;20381;-96
2023/01/11 03:41:23;;;;;;;29.90;3.75;;;;;;;6.46;100.00;99721.47;5027184;28;20475;-93
2023/01/11 03:43:53;;;;;;;33.70;4.18;;;;;;;6.40;100.00;99723.44;5051139;28;20125;-96
2023/01/11 03:46:43;;;;;;;27.95;4.15;;;;;;;6.03;100.00;99719.34;5034599;28;20057;-94
2023/01/11 03:49:29;;;;;;;32.15;5.32;;;;;;;6.11;100.00;99719.78;5051795;28;20037;-94
2023/01/11 03:51:57;;;;;;;32.40;4.88;;;;;;;6.40;100.00;99735.44;5034810;28;20045;-93
2023/01/11 03:54:26;;;;;;;28.85;4.13;;;;;;;6.30;100.00;99734.25;5034805;28;20025;-94
2023/01/11 03:57:05;;;;;;;30.65;4.05;;;;;;;6.14;100.00;99722.19;5030618;28;20105;-93
2023/01/11 03:59:32;;;;;;;29.58;3.92;;;;;;;5.93;100.00;99715.56;5014999;28;20022;-93
2023/01/11 04:01:58;;;;;;;33.28;4.85;;;;;;;5.99;100.00;99740.91;5031034;28;20022;-94
2023/01/11 04:04:24;;;;;;;35.85;4.40;;;;;;;6.11;100.00;99740.28;5014750;28;20493;-93
2023/01/11 04:06:50;;;;;;;26.83;3.80;;;;;;;6.09;100.00;99736.97;5031156;28;20077;-93
2023/01/11 04:09:15;;;;;;;27.55;3.60;;;;;;;6.39;100.00;99783.31;5014840;28;20032;-94
2023/01/11 04:11:41;;;;;;;27.15;2.80;;;;;;;6.74;100.00;99769.56;5040872;28;20037;-95
2023/01/11 04:19:18;;;;;;;14.50;1.85;;;;;;;6.23;100.00;99761.91;5498055;23;20078;-95
2023/01/11 04:21:46;;;;;;;11.05;1.67;;;;;;;5.92;100.00;99760.00;5021452;28;20034;-95
2023/01/11 04:26:47;;;;;;;9.65;1.05;;;;;;;5.61;100.00;99770.91;5108290;23;20437;-94
2023/01/11 04:29:15;;;;;;;9.30;1.17;;;;;;;5.63;100.00;99769.91;5016486;28;20030;-94
2023/01/11 04:31:40;;;;;;;9.88;1.10;;;;;;;5.46;100.00;99757.09;5015381;28;20028;-94
2023/01/11 04:34:06;;;;;;;6.78;0.95;;;;;;;5.40;100.00;99778.69;5016230;28;20200;-94
2023/01/11 04:36:32;;;;;;;7.10;1.00;;;;;;;5.44;100.00;99772.53;5014312;28;20135;-95
2023/01/11 04:38:58;;;;;;;11.80;1.42;;;;;;;5.48;100.00;99789.38;5031102;28;20026;-94
2023/01/11 04:44:09;;;;;;;6.28;0.93;;;;;;;4.79;100.00;99743.13;5017350;28;20456;-95
2023/01/11 04:46:35;;;;;;;6.65;1.15;;;;;;;4.92;100.00;99746.78;5018616;28;20037;-96
2023/01/11 04:49:01;;;;;;;8.10;1.02;;;;;;;4.92;100.00;99757.00;5015274;28;20026;-95
2023/01/11 04:51:26;;;;;;;6.88;0.70;;;;;;;4.93;100.00;99758.69;5015085;28;20040;-96
2023/01/11 04:53:52;;;;;;;4.18;0.70;;;;;;;4.92;100.00;99765.50;5013897;28;20036;-95
2023/01/11 04:56:18;;;;;;;7.10;1.10;;;;;;;4.82;100.00;99781.34;5012591;28;20030;-95
2023/01/11 04:58:43;;;;;;;6.47;0.68;;;;;;;4.67;100.00;99778.56;5009992;28;20029;-95
2023/01/11 05:01:11;;;;;;;4.90;0.90;;;;;;;4.62;100.00;99777.94;5013402;28;20026;-94
2023/01/11 05:03:37;;;;;;;4.03;0.68;;;;;;;4.35;100.00;99756.13;5013422;28;20018;-94
2023/01/11 05:06:03;;;;;;;13.05;1.33;;;;;;;4.32;100.00;99751.97;5013715;28;20392;-95
2023/01/11 05:08:29;;;;;;;6.75;1.23;;;;;;;4.48;100.00;99777.69;5013297;28;20473;-94
2023/01/11 05:10:57;;;;;;;5.70;1.50;;;;;;;4.61;100.00;99768.63;5013754;28;20029;-93
2023/01/11 05:13:42;;;;;;;8.70;1.50;;;;;;;4.55;100.00;99771.41;5013474;28;20468;-94
2023/01/11 05:16:11;;;;;;;11.20;1.17;;;;;;;4.72;100.00;99799.63;5027979;28;20033;-95
2023/01/11 05:18:44;;;;;;;11.65;1.52;;;;;;;4.50;100.00;99765.69;5013182;28;20045;-94
2023/01/11 05:21:12;;;;;;;15.35;1.95;;;;;;;4.68;100.00;99775.13;5013378;28;20120;-94
2023/01/11 05:23:38;;;;;;;11.65;1.38;;;;;;;4.64;100.00;99753.13;5013684;28;20026;-95
2023/01/11 05:26:07;;;;;;;16.70;2.00;;;;;;;4.82;100.00;99766.81;5013729;28;20041;-93
2023/01/11 05:28:33;;;;;;;19.02;2.40;;;;;;;5.10;100.00;99786.88;5014386;28;20022;-93
2023/01/11 05:30:59;;;;;;;18.55;2.20;;;;;;;5.12;100.00;99810.66;5013811;28;20041;-94
2023/01/11 05:33:25;;;;;;;13.25;2.10;;;;;;;5.58;100.00;99823.06;5019896;28;20033;-93
2023/01/11 05:36:03;;;;;;;30.27;5.18;;;;;;;5.78;100.00;99850.31;5023182;28;20022;-92
2023/01/11 05:38:29;;;;;;;18.77;2.65;;;;;;;5.58;100.00;99813.69;5025314;28;20021;-93
2023/01/11 05:40:59;;;;;;;10.52;1.77;;;;;;;5.52;100.00;99820.81;5024946;28;20033;-93
2023/01/11 05:43:26;;;;;;;12.00;2.13;;;;;;;5.51;100.00;99816.56;5027232;28;20030;-94
2023/01/11 05:45:52;;;;;;;20.35;3.03;;;;;;;5.68;100.00;99859.31;5025739;28;20026;-94
2023/01/11 05:48:19;;;;;;;12.00;1.85;;;;;;;5.61;100.00;99857.94;5025284;28;20021;-95
2023/01/11 05:50:50;;;;;;;10.93;2.22;;;;;;;5.55;100.00;99836.84;5028155;28;20034;-93
2023/01/11 05:53:15;;;;;;;19.87;6.10;;;;;;;5.40;100.00;99835.00;5022891;28;20030;-94
2023/01/11 05:55:54;;;;;;;11.25;1.50;;;;;;;5.12;100.00;99810.66;5024788;28;20286;-92
2023/01/11 05:58:19;;;;;;;6.60;1.02;;;;;;;5.15;100.00;99812.25;5032716;28;20199;-93
2023/01/11 06:00:54;;;;;;;17.73;1.77;;;;;;;5.24;100.00;99828.91;5034771;28;20133;-92
2023/01/11 06:03:20;;;;;;;13.55;1.75;;;;;;;5.12;100.00;99810.66;5032739;28;20041;-93
2023/01/11 06:05:46;;;;;;;19.25;2.28;;;;;;;5.25;100.00;99828.84;5032684;28;20101;-93
2023/01/11 06:08:11;;;;;;;14.05;1.85;;;;;;;5.23;100.00;99827.25;5033035;28;20022;-92
2023/01/11 06:10:37;;;;;;;16.92;4.05;;;;;;;5.28;100.00;99835.56;5034159;28;20044;-91
2023/01/11 06:15:47;;;;;;;14.50;1.90;;;;;;;5.07;100.00;99827.94;5035014;28;20025;-93
2023/01/11 06:18:13;;;;;;;14.75;2.75;;;;;;;4.92;100.00;99824.31;5032851;28;20026;-92
2023/01/11 06:20:38;;;;;;;12.85;1.92;;;;;;;4.93;100.00;99846.44;5029377;28;20176;-94
2023/01/11 06:23:04;;;;;;;19.17;2.83;;;;;;;4.79;100.00;99850.50;5031119;28;20030;-92
2023/01/11 06:25:29;;;;;;;10.73;3.22;;;;;;;4.70;100.00;99862.75;5036332;28;20040;-93
2023/01/11 06:27:56;;;;;;;21.38;1.95;;;;;;;4.60;100.00;99833.38;5035864;28;20169;-93
2023/01/11 06:30:24;;;;;;;21.17;3.70;;;;;;;4.80;100.00;99844.47;5034635;28;20040;-93
2023/01/11 06:32:51;;;;;;;22.35;2.50;;;;;;;4.90;100.00;99840.63;5033333;28;20022;-94
2023/01/11 06:35:16;;;;;;;23.90;2.80;;;;;;;5.05;100.00;99855.31;5028264;28;20034;-93
2023/01/11 06:37:42;;;;;;;15.02;2.25;;;;;;;5.15;100.00;99840.41;5032858;28;20056;-93
2023/01/11 06:40:08;;;;;;;17.88;2.30;;;;;;;5.24;100.00;99847.66;5033807;28;20017;-93
2023/01/11 06:42:34;;;;;;;17.73;1.75;;;;;;;4.86;100.00;99839.13;5034762;28;20021;-91
2023/01/11 06:44:59;;;;;;;15.68;2.20;;;;;;;4.72;100.00;99850.75;5033517;28;20022;-92
2023/01/11 06:47:25;;;;;;;14.27;1.88;;;;;;;4.51;100.00;99846.53;5034122;28;20044;-93
2023/01/11 06:49:51;;;;;;;17.92;2.03;;;;;;;4.48;100.00;99844.13;5025389;28;20025;-94
2023/01/11 06:52:16;;;;;;;13.00;1.85;;;;;;;4.22;100.00;99833.28;5032762;28;20037;-94
2023/01/11 06:54:42;;;;;;;22.55;2.88;;;;;;;4.28;100.00;99834.75;5034656;28;20017;-93
2023/01/11 06:57:07;;;;;;;17.25;2.20;;;;;;;4.60;100.00;99866.63;5034714;28;20026;-92
2023/01/11 06:59:33;;;;;;;15.05;1.92;;;;;;;4.22;100.00;99840.94;5035034;28;20014;-92
2023/01/11 07:01:58;;;;;;;18.85;4.00;;;;;;;4.32;100.00;99863.53;5034760;28;20025;-92
2023/01/11 07:04:24;;;;;;;21.73;2.90;;;;;;;4.24;100.00;99845.97;5035225;28;20014;-93
2023/01/11 07:06:53;;;;;;;17.27;3.20;;;;;;;4.15;100.00;99824.19;5034458;28;20042;-93
2023/01/11 07:09:19;;;;;;;18.13;2.22;;;;;;;4.11;100.00;99829.50;5020143;28;20029;-95
2023/01/11 07:11:45;;;;;;;21.92;2.60;;;;;;;4.13;100.00;99843.03;5015434;28;20113;-94
2023/01/11 07:14:13;;;;;;;21.42;2.70;;;;;;;4.29;100.00;99834.69;5014386;28;20066;-95
2023/01/11 07:16:40;;;;;;;21.98;2.08;;;;;;;4.19;100.00;99843.59;5013208;28;20093;-94
2023/01/11 07:19:06;;;;;;;20.30;3.47;;;;;;;4.40;100.00;99862.34;5030325;28;20057;-95
2023/01/11 07:21:31;;;;;;;19.65;1.88;;;;;;;4.04;100.00;99854.44;5017044;28;20029;-95
2023/01/11 07:23:57;;;;;;;20.13;2.72;;;;;;;4.35;100.00;99851.47;5017186;28;20153;-95
2023/01/11 07:26:25;;;;;;;20.60;4.68;;;;;;;4.27;100.00;99849.25;5016922;28;20040;-95
2023/01/11 07:28:50;;;;;;;20.00;2.85;;;;;;;4.25;100.00;99853.56;5017144;28;20109;-94
2023/01/11 07:31:16;;;;;;;22.20;3.25;;;;;;;4.23;100.00;99834.09;5016548;28;20094;-94
2023/01/11 07:33:41;;;;;;;23.88;2.83;;;;;;;4.19;100.00;99864.03;5016934;28;20037;-95
2023/01/11 07:36:07;;;;;;;21.90;3.13;;;;;;;4.02;100.00;99840.91;5012414;28;20117;-94
2023/01/11 07:38:33;;;;;;;23.15;3.50;;;;;;;4.08;100.00;99838.94;4997859;28;20469;-94
2023/01/11 07:40:58;;;;;;;26.48;3.50;;;;;;;4.17;100.00;99860.72;4998982;28;20026;-95
2023/01/11 07:43:24;;;;;;;29.90;3.75;;;;;;;4.10;100.00;99864.41;4998202;28;20026;-95
2023/01/11 07:45:51;;;;;;;30.85;3.70;;;;;;;4.47;100.00;99883.38;4998863;28;20034;-93
2023/01/11 07:48:25;;;;;;;21.85;5.38;;;;;;;4.11;100.00;99878.00;5001411;28;20019;-95
2023/01/11 07:50:51;;;;;;;26.70;2.95;;;;;;;4.17;100.00;99858.19;5012192;28;20045;-96
2023/01/11 07:53:17;;;;;;;22.77;3.17;;;;;;;4.28;100.00;99865.41;5002481;28;20443;-94
2023/01/11 07:55:43;;;;;;;23.25;3.08;;;;;;;4.21;100.00;99844.38;5002875;28;20022;-95
2023/01/11 07:58:11;;;;;;;33.83;5.90;;;;;;;4.24;100.00;99874.91;5019006;28;20014;-95
2023/01/11 08:00:39;;;;;;;27.30;3.38;;;;;;;4.17;100.00;99873.50;5002537;28;20026;-94
2023/01/11 08:03:05;;;;;;;27.05;4.13;;;;;;;4.34;100.00;99877.06;5017111;28;20118;-94
2023/01/11 08:05:30;;;;;;;25.65;4.20;;;;;;;4.36;100.00;99875.28;5010454;28;20432;-95
2023/01/11 08:07:56;;;;;;;22.77;3.55;;;;;;;4.39;100.00;99870.06;5025750;28;20134;-94
2023/01/11 08:10:22;;;;;;;20.42;2.85;;;;;;;4.47;100.00;99908.91;5018427;28;20030;-94
2023/01/11 08:15:42;;;;;;;;;;;;;;;4.38;100.00;99909.28;5004745;28;20034;-94
2023/01/11 08:18:10;;;;;;;23.30;3.47;;;;;;;4.21;100.00;99871.66;5016518;28;19913;-95
2023/01/11 08:20:36;;;;;;;27.15;3.75;;;;;;;4.32;100.00;99883.97;5017285;28;20428;-96
2023/01/11 08:23:07;;;;;;;21.33;3.28;;;;;;;4.42;100.00;99878.44;5016919;28;20045;-96
2023/01/11 08:25:33;;;;;;;33.05;4.55;;;;;;;4.38;100.00;99886.28;5028886;28;20022;-95
2023/01/11 08:28:00;;;;;;;28.30;4.00;;;;;;;4.70;100.00;99906.22;5023073;28;20092;-95
2023/01/11 08:30:27;;;;;;;28.38;4.88;;;;;;;4.72;100.00;99903.63;5017678;28;20065;-95
2023/01/11 08:32:52;;;;;;;29.75;3.95;;;;;;;4.82;100.00;99909.16;5017145;28;20165;-94
2023/01/11 08:35:18;;;;;;;23.92;2.85;;;;;;;5.20;100.00;99924.63;5016830;28;20050;-93
2023/01/11 08:37:43;;;;;;;25.83;5.18;;;;;;;5.09;100.00;99902.03;5015574;28;20084;-93
2023/01/11 08:40:10;;;;;;;20.90;3.80;;;;;;;4.98;100.00;99899.97;5015865;28;20117;-94
2023/01/11 08:42:35;;;;;;;23.23;4.20;;;;;;;5.01;100.00;99904.13;5014852;28;20113;-95
2023/01/11 08:45:01;;;;;;;24.15;2.65;;;;;;;4.96;100.00;99886.41;5014325;28;20080;-94
2023/01/11 08:47:26;;;;;;;16.60;3.08;;;;;;;5.08;100.00;99911.44;5013581;28;20033;-95
2023/01/11 08:49:52;;;;;;;17.75;3.15;;;;;;;4.96;100.00;99906.88;5014939;28;20026;-93
2023/01/11 08:52:17;;;;;;;15.48;2.20;;;;;;;5.02;100.00;99909.16;5008622;28;20117;-95
2023/01/11 08:54:43;;;;;;;14.32;2.35;;;;;;;5.24;100.00;99914.19;5008538;28;20478;-93
2023/01/11 08:57:09;;;;;;;21.55;3.53;;;;;;;5.55;100.00;99929.00;5011009;28;20117;-95
2023/01/11 08:59:34;;;;;;;14.85;2.53;;;;;;;5.66;100.00;99917.47;5025113;28;20026;-95
2023/01/11 09:02:01;;;;;;;21.85;3.35;;;;;;;5.93;100.00;99903.38;5015349;28;20111;-96
2023/01/11 09:04:27;;;;;;;16.02;2.33;;;;;;;6.45;100.00;99927.44;5016328;28;20056;-94
2023/01/11 09:06:53;;;;;;;24.83;2.47;;;;;;;6.68;100.00;99929.69;5014702;28;20483;-96
2023/01/11 09:09:19;;;;;;;13.18;2.85;;;;;;;6.54;100.00;99927.84;5014415;28;20117;-95
2023/01/11 09:11:53;;;;;;;16.55;2.13;;;;;;;6.29;100.00;99928.19;5014077;28;20025;-93
2023/01/11 09:14:20;;;;;;;14.98;2.65;;;;;;;6.60;100.00;99922.38;5016341;28;20022;-94
2023/01/11 09:16:47;;;;;;;21.80;3.88;;;;;;;6.68;100.00;99929.69;5023058;28;20099;-94
2023/01/11 09:19:13;;;;;;;18.85;3.08;;;;;;;6.77;100.00;99946.38;5027089;28;20467;-95
2023/01/11 09:21:39;;;;;;;20.25;2.45;;;;;;;6.83;100.00;99934.09;5024530;28;20061;-94
2023/01/11 09:24:05;;;;;;;17.02;2.35;;;;;;;7.13;98.51;99915.47;5032743;28;20022;-94
2023/01/11 09:26:31;;;;;;;15.00;2.00;;;;;;;7.22;96.11;99917.56;5015371;28;20080;-94
2023/01/11 09:28:56;;;;;;;20.98;3.17;;;;;;;7.03;97.16;99953.59;5019187;28;20021;-94
2023/01/11 09:31:23;;;;;;;18.88;2.40;;;;;;;6.87;100.00;99942.44;5025662;28;20097;-95
2023/01/11 09:33:48;;;;;;;13.52;2.47;;;;;;;6.82;100.00;99945.22;5013391;28;20095;-94
2023/01/11 09:36:16;;;;;;;10.85;1.73;;;;;;;7.47;96.56;99949.66;5022299;28;20025;-95
2023/01/11 09:38:42;;;;;;;18.85;2.20;;;;;;;7.56;95.56;99948.34;5019975;28;20333;-95
2023/01/11 09:42:04;;;;;;;14.00;2.05;;;;;;;7.06;96.38;99934.66;5023112;28;20029;-95
2023/01/11 09:44:31;;;;;;;14.95;1.77;;;;;;;7.15;97.27;99939.31;4957884;28;20089;-94
2023/01/11 09:47:26;;;;;;;17.13;1.80;;;;;;;7.12;97.83;99954.03;4957147;28;20109;-94
2023/01/11 09:49:57;;;;;;;11.18;1.77;;;;;;;7.64;93.91;99926.47;5019913;28;20038;-94
2023/01/11 09:52:35;;;;;;;12.18;2.47;;;;;;;8.21;92.44;99966.25;5012855;28;20026;-95
2023/01/11 09:55:01;;;;;;;28.45;2.53;;;;;;;8.29;89.95;99943.50;5016501;28;20072;-95
2023/01/11 09:57:42;;;;;;;15.27;1.70;;;;;;;8.20;89.72;99959.47;5012690;28;20022;-94
2023/01/11 10:00:40;;;;;;;7.25;1.48;;;;;;;8.26;90.96;99964.25;5020240;28;20423;-95
2023/01/11 10:03:26;;;;;;;11.68;1.83;;;;;;;7.74;94.53;99920.84;4990406;28;20469;-93
2023/01/11 10:06:36;;;;;;;10.73;1.83;;;;;;;7.20;99.73;99951.91;5016105;28;20030;-94
2023/01/11 10:09:40;;;;;;;15.77;2.15;;;;;;;7.57;98.18;99971.38;5010901;28;20036;-95
2023/01/11 10:12:23;;;;;;;17.67;2.55;;;;;;;7.54;96.90;99945.88;5023094;28;20103;-94
2023/01/11 10:15:06;;;;;;;9.70;1.73;;;;;;;7.86;97.21;99961.31;5012192;28;20081;-95
2023/01/11 10:17:43;;;;;;;12.98;2.30;;;;;;;7.48;98.61;99959.00;5016415;28;20303;-95
2023/01/11 10:20:26;;;;;;;21.40;2.42;;;;;;;7.50;97.81;99959.75;5017232;28;20084;-94
2023/01/11 10:23:00;;;;;;;20.90;2.55;;;;;;;7.63;96.77;99947.94;5028758;28;20017;-95
2023/01/11 10:25:39;;;;;;;13.82;2.13;;;;;;;8.11;95.54;99950.50;5021437;28;20033;-95
2023/01/11 10:28:16;;;;;;;9.18;1.75;;;;;;;8.49;90.79;99975.88;5030133;28;20057;-94
2023/01/11 10:31:25;;;;;;;15.05;2.30;;;;;;;8.88;87.81;99970.19;5013742;28;20116;-96
2023/01/11 10:40:25;;;;;;;14.30;2.10;;;;;;;8.63;87.92;99954.50;5016138;28;20508;-96
2023/01/11 10:42:55;;;;;;;22.77;2.28;;;;;;;8.50;91.40;99957.75;5029134;28;20392;-93
2023/01/11 10:45:45;;;;;;;10.68;1.80;;;;;;;9.57;87.80;99985.88;5020844;28;20030;-95
2023/01/11 10:48:44;;;;;;;21.42;2.70;;;;;;;8.82;94.78;99960.25;5029788;28;20029;-95
2023/01/11 10:55:34;;;;;;;15.23;2.45;;;;;;;7.89;100.00;99956.00;5013808;28;20017;-93
2023/01/11 11:08:48;;;;;;;;;;;;;;;;;;;;;
2023/01/11 11:18:13;;;;;;;;;;;;;;;;;;;;;
2023/01/11 11:24:49;;;;;;;18.33;3.55;;;;;;;6.67;100.00;99978.50;4875896;29;20048;-96
2023/01/11 11:27:30;;;;;;;16.73;2.67;;;;;;;6.93;100.00;100020.84;4892417;29;20049;-96
2023/01/11 11:29:56;;;;;;;18.75;2.45;;;;;;;6.90;100.00;99990.19;5030921;28;20042;-95
2023/01/11 11:32:33;;;;;;;17.30;2.33;;;;;;;6.93;100.00;99965.25;5016341;28;20036;-93
2023/01/11 11:34:58;;;;;;;12.52;1.90;;;;;;;6.93;100.00;99962.66;5013998;28;20033;-94
2023/01/11 11:37:26;;;;;;;13.60;2.47;;;;;;;7.10;100.00;99977.22;5013801;28;20026;-95
2023/01/11 11:39:53;;;;;;;23.08;2.70;;;;;;;7.10;100.00;99978.97;5011888;28;20121;-94
2023/01/11 11:42:20;;;;;;;13.93;2.35;;;;;;;6.88;100.00;99968.91;5000206;28;20114;-95
2023/01/11 11:45:04;;;;;;;24.92;3.67;;;;;;;6.79;100.00;99937.69;5002950;28;20026;-95
2023/01/11 11:47:29;;;;;;;16.45;2.55;;;;;;;6.75;100.00;99946.44;5012577;28;20121;-95
2023/01/11 11:50:17;;;;;;;14.82;2.35;;;;;;;6.81;100.00;99983.81;5012479;28;20149;-94
2023/01/11 11:52:47;;;;;;;21.40;3.95;;;;;;;6.79;100.00;99957.41;5012097;28;20484;-93
2023/01/11 11:55:16;;;;;;;16.83;2.60;;;;;;;6.61;100.00;99923.25;5010681;28;20125;-95
2023/01/11 11:57:43;;;;;;;17.95;3.00;;;;;;;6.74;100.00;99926.03;5010360;28;20037;-95
2023/01/11 12:00:55;;;;;;;17.23;2.33;;;;;;;6.71;100.00;99919.31;5024293;28;20025;-96
2023/01/11 12:03:32;;;;;;;11.75;1.77;;;;;;;6.95;100.00;99939.47;5009685;28;20061;-96
2023/01/11 12:06:00;;;;;;;11.73;1.83;;;;;;;6.89;100.00;99939.81;5026730;28;20033;-95
2023/01/11 12:08:27;;;;;;;12.15;1.48;;;;;;;6.88;100.00;99936.41;5034420;28;20048;-94
2023/01/11 12:10:57;;;;;;;11.15;1.98;;;;;;;6.71;100.00;99929.56;5009301;28;20026;-95
2023/01/11 12:13:33;;;;;;;12.25;2.47;;;;;;;6.71;100.00;99949.25;5007763;28;20121;-94
2023/01/11 12:16:06;;;;;;;11.15;2.00;;;;;;;6.65;100.00;99920.41;5004499;28;20029;-95
2023/01/11 12:18:42;;;;;;;17.48;2.33;;;;;;;6.93;100.00;99938.75;5013176;28;20033;-92
2023/01/11 12:21:20;;;;;;;13.70;2.33;;;;;;;7.02;100.00;99946.81;5010989;28;20029;-94
2023/01/11 12:23:46;;;;;;;23.85;2.70;;;;;;;6.80;100.00;99918.00;5010216;28;20036;-92
2023/01/11 12:26:17;;;;;;;22.88;2.63;;;;;;;6.93;100.00;99949.03;5007318;28;20030;-93
2023/01/11 12:28:49;;;;;;;13.25;2.10;;;;;;;6.84;100.00;99940.84;5004189;28;20114;-92
2023/01/11 12:31:17;;;;;;;13.15;2.47;;;;;;;6.83;100.00;99949.47;5001217;28;20440;-93
2023/01/11 12:33:51;;;;;;;12.10;2.33;;;;;;;6.61;100.00;99936.06;5011586;28;20455;-93
2023/01/11 12:36:41;;;;;;;14.73;1.98;;;;;;;6.60;100.00;99983.09;5011489;28;20029;-93
2023/01/11 12:39:38;;;;;;;9.60;1.58;;;;;;;6.20;100.00;99987.56;4996893;28;20484;-94
2023/01/11 12:42:04;;;;;;;6.93;1.33;;;;;;;5.99;100.00;99946.66;5006019;28;20535;-94
2023/01/11 15:26:24;;;;;;;19.25;1.88;;;;;;;5.82;100.00;99774.16;6051564;23;20022;31
2023/01/11 15:29:26;;;;;;;19.38;1.83;;;;;;;5.81;100.00;99767.41;5305408;23;20052;-93
2023/01/11 15:45:31;;;;;;;21.45;3.50;;;;;;;6.19;100.00;99778.34;5306670;23;20267;-96